Skip Navigation Links Skip Navigation Links

Current Weather

Ushuaia Aerodrome, Argentina

For information only: do not use for flight planning or navigation.
Latest weather
Observation time Friday, November 17, 2017 6:00 PM ART
Local time Friday, November 17, 2017 6:20 PM ART
Flight conditions Visual Meteorological Conditions
Winds
Wind direction West-Southwest (250°)
Wind speed 17 mph
Visibility 6.2 mi.
Sky condition
Ceiling 10,000 ft. broken clouds
Cloud layer few clouds 4,500 ft.
Cloud layer broken clouds 10,000 ft.
Temperature 48°F
Dewpoint 30°F
Altimeter 29.65 in.Hg
Derived measurements
Relative humidity 50%
Wind chill 42°F
Density altitude -299 ft.
METAR SAWH 172100Z 25015KT 9999 FEW045 BKN100 09/M01 Q1004

Settings

Location code

InnerDrive.Weather 4.0.6144.1 Release CLR 4.0.30319.36366
Copyright ©2015 Inner Drive Technology. All rights reserved. Portions Copyright ©1986-2015 David Braverman.

Find weather

Site navigation


Skip Navigation Links

Place info

Page info

PayPal - The safer, easier way to pay online!

Return home.

Copyright ©2017 Inner Drive Technology. Purveyors of fine, hand-crafted computer software. Page printed 2017-11-17T21:20:34 UTC.